Time;durP1;ratioP1;P1;durP2;ratioP2;P2;SDS_P1;SDS_P2;PMS_P1;PMS_P2;Temp;Humidity;BMP_temperature;BMP_pressure;BME280_temperature;BME280_humidity;BME280_pressure;Samples;Min_cycle;Max_cycle;Signal;HPM_P1;HPM_P2
2022/09/23 00:00:02;;;;;;;26.63;6.50;;;;;;;5.78;100.00;98919.84;2620575;28;20040;-81
2022/09/23 00:01:18;;;;;;;34.60;6.03;;;;;;;5.74;100.00;98916.41;2619823;28;20051;-81
2022/09/23 00:02:33;;;;;;;49.30;7.00;;;;;;;5.78;100.00;98922.44;2621504;28;20055;-81
2022/09/23 00:03:49;;;;;;;38.45;5.57;;;;;;;5.90;100.00;98917.25;2622498;28;20224;-81
2022/09/23 00:05:06;;;;;;;55.95;6.03;;;;;;;5.78;100.00;98910.34;2623295;28;20561;-81
2022/09/23 00:06:22;;;;;;;20.25;5.25;;;;;;;5.79;100.00;98914.66;2619707;28;20099;-82
2022/09/23 00:07:38;;;;;;;43.65;6.80;;;;;;;5.75;100.00;98912.94;2624390;28;20066;-80
2022/09/23 00:08:53;;;;;;;50.67;6.70;;;;;;;5.93;100.00;98917.22;2620670;28;20778;-81
2022/09/23 00:10:09;;;;;;;67.95;7.20;;;;;;;5.99;100.00;98915.50;2622846;28;20052;-82
2022/09/23 00:11:27;;;;;;;61.42;6.53;;;;;;;5.93;100.00;98913.78;2620903;28;20063;-82
2022/09/23 00:12:42;;;;;;;45.50;5.78;;;;;;;5.96;100.00;98918.13;2622829;28;20071;-81
2022/09/23 00:13:59;;;;;;;40.47;7.20;;;;;;;5.74;100.00;98921.59;2620990;28;20149;-81
2022/09/23 00:15:15;;;;;;;32.10;5.50;;;;;;;5.70;100.00;98919.84;2620690;28;20534;-83
2022/09/23 00:16:33;;;;;;;33.15;5.70;;;;;;;5.67;100.00;98914.66;2621464;28;20074;-81
2022/09/23 00:17:50;;;;;;;41.90;6.15;;;;;;;5.63;100.00;98913.78;2620521;28;20639;-82
2022/09/23 00:19:06;;;;;;;39.92;5.78;;;;;;;5.46;100.00;98924.19;2622608;28;20053;-82
2022/09/23 00:20:22;;;;;;;46.17;6.43;;;;;;;5.48;100.00;98914.69;2622796;28;20059;-82
2022/09/23 00:21:37;;;;;;;57.47;5.68;;;;;;;5.30;100.00;98918.13;2621426;28;20051;-85
2022/09/23 00:22:53;;;;;;;77.88;7.38;;;;;;;5.31;100.00;98919.84;2623018;28;20040;-82
2022/09/23 00:24:08;;;;;;;49.92;5.15;;;;;;;5.22;100.00;98917.22;2621993;28;20070;-82
2022/09/23 00:25:24;;;;;;;68.00;5.88;;;;;;;5.20;100.00;98921.56;2619942;28;20525;-81
2022/09/23 00:26:40;;;;;;;48.45;6.47;;;;;;;5.23;100.00;98918.97;2621935;28;20044;-81
2022/09/23 00:27:56;;;;;;;66.28;6.22;;;;;;;5.26;100.00;98912.91;2621736;28;20105;-81
2022/09/23 00:29:11;;;;;;;53.78;6.10;;;;;;;5.27;100.00;98918.13;2620227;28;20482;-85
2022/09/23 00:30:28;;;;;;;47.88;5.70;;;;;;;5.43;100.00;98926.78;2619514;28;20052;-81
2022/09/23 00:31:44;;;;;;;53.72;5.85;;;;;;;5.43;100.00;98918.13;2621375;28;20051;-82
2022/09/23 00:32:59;;;;;;;51.83;5.72;;;;;;;5.27;100.00;98912.06;2620238;28;20563;-82
2022/09/23 00:34:15;;;;;;;47.47;7.90;;;;;;;5.18;100.00;98913.78;2619735;28;20048;-81
2022/09/23 00:35:31;;;;;;;40.92;7.05;;;;;;;5.36;100.00;98910.31;2623051;28;20062;-81
2022/09/23 00:36:46;;;;;;;40.97;5.32;;;;;;;5.30;100.00;98919.84;2621693;28;20068;-82
2022/09/23 00:38:02;;;;;;;62.38;5.72;;;;;;;5.12;100.00;98908.56;2619644;28;20048;-82
2022/09/23 00:39:17;;;;;;;42.30;5.28;;;;;;;5.22;100.00;98915.50;2621231;28;20052;-81
2022/09/23 00:40:35;;;;;;;66.57;7.85;;;;;;;5.11;100.00;98919.81;2619058;28;20505;-85
2022/09/23 00:41:51;;;;;;;27.00;5.82;;;;;;;5.03;100.00;98906.84;2620669;28;20581;-81
2022/09/23 00:43:11;;;;;;;29.25;4.65;;;;;;;5.14;100.00;98913.78;2622170;28;20094;-82
2022/09/23 00:44:41;;;;;;;48.38;5.90;;;;;;;4.90;100.00;98911.13;2621548;28;20077;-82
2022/09/23 00:45:56;;;;;;;48.22;6.07;;;;;;;4.81;100.00;98913.69;2621047;28;20047;-83
2022/09/23 00:47:35;;;;;;;36.53;4.60;;;;;;;5.02;100.00;98912.00;2622065;28;20063;-83
2022/09/23 00:49:05;;;;;;;47.78;4.97;;;;;;;4.89;100.00;98911.13;2620538;28;20048;-85
2022/09/23 00:50:26;;;;;;;34.70;5.15;;;;;;;5.07;100.00;98903.38;2621368;28;20054;-81
2022/09/23 00:51:52;;;;;;;58.22;6.10;;;;;;;5.06;100.00;98905.97;2619940;28;20063;-81
2022/09/23 00:53:13;;;;;;;39.80;5.47;;;;;;;5.16;100.00;98904.25;2622866;28;20050;-81
2022/09/23 00:54:30;;;;;;;49.08;6.15;;;;;;;5.25;100.00;98903.41;2619939;28;20422;-82
2022/09/23 00:55:53;;;;;;;42.40;5.70;;;;;;;4.99;100.00;98901.63;2621616;28;20098;-81
2022/09/23 00:57:10;;;;;;;46.60;5.78;;;;;;;5.21;100.00;98905.13;2619866;28;20052;-82
2022/09/23 00:58:31;;;;;;;28.45;4.65;;;;;;;5.29;100.00;98900.81;2620074;28;20239;-82
2022/09/23 00:59:49;;;;;;;38.83;5.68;;;;;;;5.33;100.00;98899.94;2622945;28;20068;-82
2022/09/23 01:01:04;;;;;;;39.28;5.18;;;;;;;5.33;100.00;98891.31;2622117;28;20056;-82
2022/09/23 01:02:20;;;;;;;47.25;5.57;;;;;;;5.28;100.00;98900.81;2620422;28;20063;-81
2022/09/23 01:03:36;;;;;;;26.33;4.80;;;;;;;4.97;100.00;98895.56;2620278;28;20131;-82
2022/09/23 01:04:51;;;;;;;33.88;4.40;;;;;;;5.13;100.00;98897.31;2622472;28;20078;-82
2022/09/23 01:06:07;;;;;;;33.35;4.82;;;;;;;5.20;100.00;98898.19;2620495;28;20412;-82
2022/09/23 01:07:23;;;;;;;35.90;5.13;;;;;;;5.20;100.00;98893.88;2622109;28;20060;-81
2022/09/23 01:08:41;;;;;;;21.90;4.90;;;;;;;5.05;100.00;98897.31;2621209;28;20048;-83
2022/09/23 01:09:58;;;;;;;35.05;5.53;;;;;;;4.91;100.00;98892.13;2621631;28;20048;-81
2022/09/23 01:11:34;;;;;;;30.75;5.32;;;;;;;4.70;100.00;98902.41;2621355;28;20044;-81
2022/09/23 01:13:20;;;;;;;23.70;5.10;;;;;;;4.78;100.00;98890.34;2621546;28;20052;-82
2022/09/23 01:14:41;;;;;;;44.22;5.30;;;;;;;4.85;100.00;98892.06;2622592;28;20394;-82
2022/09/23 01:16:27;;;;;;;39.22;5.72;;;;;;;4.75;100.00;98885.13;2620467;28;20055;-82
2022/09/23 01:18:11;;;;;;;60.63;6.20;;;;;;;4.76;100.00;98887.75;2619449;28;20094;-83
2022/09/23 01:20:00;;;;;;;83.07;6.40;;;;;;;4.75;100.00;98888.59;2602120;28;20076;-82
2022/09/23 01:21:43;;;;;;;24.02;4.85;;;;;;;4.84;100.00;98886.91;2619615;28;20053;-82
2022/09/23 01:23:02;;;;;;;34.08;4.28;;;;;;;4.75;100.00;98886.00;2622741;28;20052;-83
2022/09/23 01:24:31;;;;;;;19.35;5.03;;;;;;;4.99;100.00;98884.34;2621975;28;20132;-81
2022/09/23 01:26:06;;;;;;;35.05;4.63;;;;;;;5.14;100.00;98885.22;2621123;28;20552;-82
2022/09/23 01:28:00;;;;;;;22.45;4.57;;;;;;;5.18;100.00;98880.03;2619696;28;20048;-81
2022/09/23 01:29:34;;;;;;;12.82;4.28;;;;;;;5.13;100.00;98883.50;2622927;28;20167;-82
2022/09/23 01:31:07;;;;;;;28.80;4.80;;;;;;;4.98;100.00;98877.41;2621905;28;20048;-81
2022/09/23 01:32:47;;;;;;;8.90;4.43;;;;;;;5.11;100.00;98886.06;2620339;28;20048;-82
2022/09/23 01:34:14;;;;;;;14.15;4.68;;;;;;;5.21;100.00;98876.56;2619966;28;20059;-81
2022/09/23 01:35:41;;;;;;;29.88;4.80;;;;;;;5.16;100.00;98886.09;2620395;28;20052;-83
2022/09/23 01:37:21;;;;;;;17.13;4.40;;;;;;;5.01;100.00;98876.53;2620652;28;20083;-82
2022/09/23 01:38:46;;;;;;;21.63;4.35;;;;;;;4.94;100.00;98871.34;2619428;28;20453;-82
2022/09/23 01:40:27;;;;;;;17.33;3.88;;;;;;;4.99;100.00;98875.69;2621386;28;20048;-82
2022/09/23 01:41:50;;;;;;;10.82;4.20;;;;;;;5.08;100.00;98873.09;2621113;28;20553;-83
2022/09/23 01:43:16;;;;;;;16.10;4.20;;;;;;;4.85;100.00;98876.50;2620787;28;20059;-82
2022/09/23 01:44:41;;;;;;;33.90;5.15;;;;;;;5.01;100.00;98872.22;2622887;28;20048;-86
2022/09/23 01:45:59;;;;;;;30.33;5.72;;;;;;;4.99;100.00;98870.47;2619626;28;20056;-83
2022/09/23 01:47:29;;;;;;;45.25;5.38;;;;;;;4.48;100.00;98877.28;2620496;28;20061;-82
2022/09/23 01:48:52;;;;;;;51.75;7.20;;;;;;;4.60;100.00;98871.25;2620273;28;20055;-82
2022/09/23 01:52:04;;;;;;;30.20;5.60;;;;;;;4.59;100.00;98872.13;2622581;28;20056;-82
2022/09/23 01:53:48;;;;;;;51.25;5.57;;;;;;;4.51;100.00;98873.84;2622710;28;20469;-83
2022/09/23 01:55:22;;;;;;;57.10;5.30;;;;;;;4.70;100.00;98872.16;2623422;28;20048;-83
2022/09/23 01:56:42;;;;;;;60.30;6.22;;;;;;;4.75;100.00;98873.03;2623278;28;20419;-82
2022/09/23 01:58:04;;;;;;;26.75;4.95;;;;;;;4.60;100.00;98876.44;2623641;28;20044;-81
2022/09/23 01:59:28;;;;;;;36.95;4.85;;;;;;;4.40;100.00;98870.34;2621346;28;20056;-81
2022/09/23 02:00:54;;;;;;;58.15;6.00;;;;;;;4.51;100.00;98872.09;2622724;28;20062;-81
2022/09/23 02:02:34;;;;;;;62.40;5.85;;;;;;;4.59;100.00;98861.75;2622444;28;20135;-83
2022/09/23 02:04:00;;;;;;;106.50;6.97;;;;;;;4.69;100.00;98866.97;2623046;28;20182;-80
2022/09/23 02:05:31;;;;;;;56.05;5.13;;;;;;;4.62;100.00;98866.09;2622572;28;20051;-82
2022/09/23 02:06:56;;;;;;;63.83;5.68;;;;;;;4.43;100.00;98863.44;2624330;28;20679;-82
2022/09/23 02:08:26;;;;;;;36.80;4.60;;;;;;;4.33;100.00;98864.25;2623322;28;20051;-83
2022/09/23 02:09:47;;;;;;;37.75;4.05;;;;;;;4.52;100.00;98868.63;2624703;28;20604;-84
2022/09/23 02:11:09;;;;;;;81.97;6.20;;;;;;;4.48;100.00;98868.66;2623575;28;20186;-81
2022/09/23 02:12:28;;;;;;;80.57;7.30;;;;;;;4.43;100.00;98868.63;2621785;28;20125;-81
2022/09/23 02:13:57;;;;;;;85.82;6.72;;;;;;;4.52;100.00;98865.19;2622299;28;20044;-84
2022/09/23 02:15:17;;;;;;;49.65;5.20;;;;;;;4.44;100.00;98862.56;2622383;28;20055;-82
2022/09/23 02:16:42;;;;;;;27.38;4.90;;;;;;;4.51;100.00;98866.06;2621254;28;20399;-85
2022/09/23 02:18:12;;;;;;;41.08;4.63;;;;;;;4.40;100.00;98868.63;2624679;28;20099;-82
2022/09/23 02:19:38;;;;;;;20.25;4.60;;;;;;;4.19;100.00;98869.38;2622345;28;20533;-81
2022/09/23 02:20:59;;;;;;;15.88;4.60;;;;;;;4.37;100.00;98866.00;2622872;28;20051;-82
2022/09/23 02:22:21;;;;;;;23.60;4.70;;;;;;;4.45;100.00;98866.91;2623625;28;20143;-84
2022/09/23 02:23:49;;;;;;;;;;;;;;;4.55;100.00;98866.94;2621838;28;20059;-83
2022/09/23 02:25:06;;;;;;;12.85;4.15;;;;;;;4.51;100.00;98866.06;2621724;28;19935;-88
2022/09/23 02:26:29;;;;;;;18.75;4.68;;;;;;;4.31;100.00;98868.56;2624167;28;20040;-80
2022/09/23 02:27:56;;;;;;;16.73;4.57;;;;;;;4.29;100.00;98871.16;2620915;28;20082;-82
2022/09/23 02:29:18;;;;;;;50.53;5.78;;;;;;;4.32;100.00;98860.78;2623375;28;20101;-85
2022/09/23 02:30:47;;;;;;;108.03;7.90;;;;;;;4.20;100.00;98868.53;2623325;28;20467;-84
2022/09/23 02:32:16;;;;;;;97.90;6.75;;;;;;;4.18;100.00;98868.50;2622949;28;20084;-82
2022/09/23 02:33:42;;;;;;;85.03;6.38;;;;;;;4.05;100.00;98867.59;2622044;28;20040;-83
2022/09/23 02:35:05;;;;;;;121.90;7.35;;;;;;;4.02;100.00;98869.31;2623044;28;20052;-82
2022/09/23 02:36:49;;;;;;;84.10;6.25;;;;;;;4.06;100.00;98866.75;2620993;28;20049;-82
2022/09/23 02:38:37;;;;;;;51.47;4.90;;;;;;;4.14;100.00;98863.31;2620962;28;20547;-82
2022/09/23 02:40:26;;;;;;;81.68;6.88;;;;;;;4.07;100.00;98860.69;2622139;28;20048;-82
2022/09/23 02:41:58;;;;;;;86.88;6.30;;;;;;;4.05;100.00;98859.81;2622633;28;20062;-82
2022/09/23 02:43:18;;;;;;;78.90;6.40;;;;;;;4.05;100.00;98854.66;2623570;28;20063;-82
2022/09/23 02:44:34;;;;;;;98.55;6.93;;;;;;;4.02;100.00;98853.75;2623754;28;20048;-82
2022/09/23 02:45:50;;;;;;;89.45;7.72;;;;;;;4.07;100.00;98852.91;2623471;28;20047;-81
2022/09/23 02:47:06;;;;;;;106.85;8.13;;;;;;;3.93;100.00;98855.44;2624079;28;20080;-84
2022/09/23 02:48:36;;;;;;;170.73;10.23;;;;;;;4.01;100.00;98852.03;2622093;28;20105;-81
2022/09/23 02:49:55;;;;;;;84.60;6.80;;;;;;;3.98;100.00;98850.28;2623021;28;20060;-82
2022/09/23 02:51:11;;;;;;;92.50;8.45;;;;;;;4.03;100.00;98851.16;2621737;28;20044;-82
2022/09/23 02:52:27;;;;;;;98.75;7.63;;;;;;;3.99;100.00;98857.19;2622654;28;20063;-81
2022/09/23 02:53:44;;;;;;;152.13;10.07;;;;;;;4.10;100.00;98852.94;2622290;28;20062;-83
2022/09/23 02:55:00;;;;;;;27.42;5.60;;;;;;;4.09;100.00;98852.91;2621412;28;20149;-80
2022/09/23 02:56:19;;;;;;;127.28;8.20;;;;;;;4.12;100.00;98852.06;2621966;28;20475;-82
2022/09/23 02:57:34;;;;;;;26.08;5.82;;;;;;;4.09;100.00;98851.19;2622383;28;20367;-81
2022/09/23 02:58:52;;;;;;;138.73;9.85;;;;;;;4.22;100.00;98846.06;2621643;28;20044;-81
2022/09/23 03:00:09;;;;;;;16.77;6.10;;;;;;;4.21;100.00;98852.13;2621984;28;20047;-81
2022/09/23 03:01:51;;;;;;;131.13;9.73;;;;;;;4.32;100.00;98846.97;2622095;28;20539;-85
2022/09/23 03:03:22;;;;;;;131.73;9.85;;;;;;;4.31;100.00;98855.63;2621302;28;20055;-81
2022/09/23 03:04:46;;;;;;;90.65;7.53;;;;;;;4.31;100.00;98856.47;2620966;28;20052;-81
2022/09/23 03:06:14;;;;;;;85.90;8.57;;;;;;;4.24;100.00;98854.72;2623074;28;20125;-81
2022/09/23 03:07:32;;;;;;;73.18;6.18;;;;;;;4.20;100.00;98851.25;2622421;28;20383;-81
2022/09/23 03:08:56;;;;;;;117.88;8.32;;;;;;;4.19;100.00;98857.28;2622170;28;20048;-80
2022/09/23 03:10:27;;;;;;;88.20;6.00;;;;;;;4.36;100.00;98853.88;2621159;28;20498;-82
2022/09/23 03:11:49;;;;;;;76.28;6.22;;;;;;;4.28;100.00;98853.00;2621981;28;20137;-81
2022/09/23 03:13:14;;;;;;;;;;;;;;;4.40;100.00;98844.41;2621387;28;20056;-83
2022/09/23 03:14:49;;;;;;;78.65;6.07;;;;;;;4.50;100.00;98848.78;2620425;28;19928;-81
2022/09/23 03:16:19;;;;;;;115.38;7.55;;;;;;;4.33;100.00;98852.19;2621140;28;20052;-81
2022/09/23 03:18:00;;;;;;;55.75;5.85;;;;;;;4.41;100.00;98851.31;2622346;28;20115;-81
2022/09/23 03:19:22;;;;;;;101.45;7.80;;;;;;;4.36;100.00;98849.59;2621392;28;20052;-81
2022/09/23 03:21:13;;;;;;;63.50;6.03;;;;;;;4.29;100.00;98849.56;2621400;28;20063;-80
2022/09/23 03:22:34;;;;;;;61.20;6.28;;;;;;;4.44;100.00;98854.81;2608113;28;20056;-81
2022/09/23 03:23:52;;;;;;;32.13;6.20;;;;;;;4.50;100.00;98846.19;2620749;28;20052;-82
2022/09/23 03:25:14;;;;;;;51.47;6.78;;;;;;;4.47;100.00;98841.84;2620637;28;20048;-81
2022/09/23 03:26:34;;;;;;;98.15;8.35;;;;;;;4.53;100.00;98838.41;2620748;28;20388;-80
2022/09/23 03:27:56;;;;;;;92.68;9.77;;;;;;;4.46;100.00;98842.69;2622171;28;20100;-81
2022/09/23 03:29:14;;;;;;;90.68;7.82;;;;;;;4.47;100.00;98838.38;2622075;28;20045;-81
2022/09/23 03:30:34;;;;;;;165.60;10.90;;;;;;;4.53;100.00;98836.66;2620808;28;20083;-82
2022/09/23 03:31:51;;;;;;;158.65;9.73;;;;;;;4.49;100.00;98844.44;2622455;28;20724;-85
2022/09/23 03:33:11;;;;;;;86.18;8.70;;;;;;;4.36;100.00;98847.00;2620419;28;20058;-85
2022/09/23 03:34:29;;;;;;;50.38;6.32;;;;;;;4.39;100.00;98840.94;2624118;28;20044;-81
2022/09/23 03:37:52;;;;;;;135.93;8.77;;;;;;;4.37;100.00;98834.88;2600511;28;20076;-81
2022/09/23 03:39:11;;;;;;;85.30;7.78;;;;;;;4.31;100.00;98840.91;2622237;28;20098;-81
2022/09/23 03:40:31;;;;;;;163.07;11.10;;;;;;;4.34;100.00;98838.34;2621030;28;20048;-81
2022/09/23 03:41:51;;;;;;;36.13;6.70;;;;;;;4.31;100.00;98837.47;2620346;28;20558;-81
2022/09/23 03:43:12;;;;;;;24.58;6.68;;;;;;;4.33;100.00;98840.94;2622519;28;20083;-81
2022/09/23 03:44:28;;;;;;;20.17;6.47;;;;;;;4.27;100.00;98833.13;2622042;28;20079;-81
2022/09/23 03:45:45;;;;;;;39.40;8.13;;;;;;;4.33;100.00;98836.63;2621346;28;20040;-81
2022/09/23 03:47:01;;;;;;;12.18;6.22;;;;;;;4.41;100.00;98833.19;2620755;28;20048;-82
2022/09/23 03:48:17;;;;;;;9.73;5.53;;;;;;;4.32;100.00;98834.00;2620184;28;20113;-82
2022/09/23 03:49:36;;;;;;;8.45;5.47;;;;;;;4.41;100.00;98825.41;2622282;28;20410;-81
2022/09/23 03:50:51;;;;;;;12.73;6.20;;;;;;;4.41;100.00;98828.00;2620112;28;20674;-81
2022/09/23 03:52:07;;;;;;;12.43;6.05;;;;;;;4.33;100.00;98836.63;2621557;28;20049;-81
2022/09/23 03:53:22;;;;;;;11.38;5.70;;;;;;;4.40;100.00;98834.03;2622411;28;20048;-86
2022/09/23 03:54:38;;;;;;;11.80;5.80;;;;;;;4.41;100.00;98828.00;2622412;28;20056;-84
2022/09/23 03:55:53;;;;;;;10.43;5.40;;;;;;;4.46;100.00;98826.25;2621464;28;20098;-82
2022/09/23 03:57:10;;;;;;;8.43;5.10;;;;;;;4.45;100.00;98827.13;2622195;28;20066;-81
2022/09/23 03:58:26;;;;;;;13.43;5.45;;;;;;;4.36;100.00;98821.06;2622333;28;20086;-81
2022/09/23 03:59:42;;;;;;;7.95;5.40;;;;;;;4.53;100.00;98818.50;2622828;28;20052;-80
2022/09/23 04:00:58;;;;;;;8.85;4.47;;;;;;;4.53;100.00;98817.66;2620055;28;21039;-83
2022/09/23 04:02:15;;;;;;;9.23;4.82;;;;;;;4.64;100.00;98809.88;2619868;28;20043;-81
2022/09/23 04:03:31;;;;;;;10.27;4.90;;;;;;;4.65;100.00;98809.91;2622217;28;20063;-81
2022/09/23 04:04:46;;;;;;;8.50;4.65;;;;;;;4.65;100.00;98817.69;2622589;28;20040;-81
2022/09/23 04:06:02;;;;;;;11.73;4.45;;;;;;;4.45;100.00;98809.84;2621607;28;20138;-84
2022/09/23 04:07:18;;;;;;;7.35;4.60;;;;;;;4.60;100.00;98808.16;2622448;28;20455;-85
2022/09/23 04:08:33;;;;;;;9.48;4.50;;;;;;;4.46;100.00;98813.31;2621059;28;20040;-81
2022/09/23 04:09:49;;;;;;;11.52;4.47;;;;;;;4.34;100.00;98811.53;2623187;28;20421;-82
2022/09/23 04:11:04;;;;;;;7.90;4.07;;;;;;;4.40;100.00;98810.72;2623498;28;20058;-80
2022/09/23 04:12:20;;;;;;;7.63;4.53;;;;;;;4.47;100.00;98807.25;2621780;28;20076;-81
2022/09/23 04:13:36;;;;;;;6.32;4.40;;;;;;;4.52;100.00;98808.16;2622788;28;20048;-80
2022/09/23 04:14:51;;;;;;;16.48;4.55;;;;;;;4.40;100.00;98806.41;2620858;28;20055;-81
2022/09/23 04:16:07;;;;;;;11.60;4.20;;;;;;;4.43;100.00;98806.41;2622033;28;20089;-80
2022/09/23 04:17:22;;;;;;;8.02;3.80;;;;;;;4.28;100.00;98806.34;2619631;28;21020;-80
2022/09/23 04:18:38;;;;;;;10.15;4.63;;;;;;;4.36;100.00;98810.69;2623703;28;20498;-81
2022/09/23 04:19:54;;;;;;;10.98;4.25;;;;;;;4.40;100.00;98803.81;2623007;28;20048;-82
2022/09/23 04:21:09;;;;;;;12.32;4.68;;;;;;;4.40;100.00;98802.94;2620977;28;20317;-79
2022/09/23 04:22:25;;;;;;;6.90;4.30;;;;;;;4.51;100.00;98798.63;2621712;28;20052;-83
2022/09/23 04:23:41;;;;;;;8.18;4.70;;;;;;;4.56;100.00;98796.06;2621402;28;20138;-80
2022/09/23 04:24:56;;;;;;;10.23;5.53;;;;;;;4.49;100.00;98795.19;2620346;28;20868;-81
2022/09/23 04:26:12;;;;;;;6.22;4.22;;;;;;;4.37;100.00;98799.47;2620545;28;20415;-80
2022/09/23 04:27:28;;;;;;;7.55;4.40;;;;;;;4.37;100.00;98793.41;2621065;28;20093;-80
2022/09/23 04:28:43;;;;;;;11.02;4.35;;;;;;;4.28;100.00;98796.84;2620138;28;20403;-82
2022/09/23 04:29:59;;;;;;;8.57;4.32;;;;;;;4.33;100.00;98795.16;2621121;28;20048;-80
2022/09/23 04:31:15;;;;;;;18.23;5.00;;;;;;;4.58;100.00;98789.16;2621654;28;20048;-81
2022/09/23 04:32:30;;;;;;;12.52;3.97;;;;;;;4.64;100.00;98792.63;2620419;28;20055;-80
2022/09/23 04:33:46;;;;;;;6.40;4.00;;;;;;;4.48;100.00;98796.91;2621881;28;20378;-83
2022/09/23 04:35:02;;;;;;;6.97;4.18;;;;;;;4.60;100.00;98798.63;2621366;28;20113;-81
2022/09/23 04:36:18;;;;;;;18.15;4.72;;;;;;;4.48;100.00;98798.63;2620811;28;20362;-80
2022/09/23 04:37:33;;;;;;;12.07;4.15;;;;;;;4.59;100.00;98794.31;2621062;28;20058;-81
2022/09/23 04:38:50;;;;;;;6.30;4.10;;;;;;;4.70;100.00;98796.94;2622113;28;20569;-82
2022/09/23 04:40:06;;;;;;;17.63;4.32;;;;;;;4.69;100.00;98794.34;2620699;28;20162;-80
2022/09/23 04:41:22;;;;;;;11.73;4.10;;;;;;;4.72;100.00;98796.94;2619977;28;20102;-80
2022/09/23 04:42:37;;;;;;;9.75;4.28;;;;;;;4.63;100.00;98796.06;2621241;28;20060;-80
2022/09/23 04:43:53;;;;;;;5.40;3.45;;;;;;;4.65;100.00;98798.66;2622248;28;20622;-80
2022/09/23 04:45:09;;;;;;;8.77;3.55;;;;;;;4.76;100.00;98801.28;2620448;28;20048;-82
2022/09/23 04:46:25;;;;;;;12.10;3.90;;;;;;;4.73;100.00;98793.47;2620211;28;20465;-81
2022/09/23 04:47:40;;;;;;;11.13;4.43;;;;;;;4.71;100.00;98798.69;2619324;28;20048;-86
2022/09/23 04:48:56;;;;;;;7.60;3.63;;;;;;;4.81;100.00;98796.97;2620476;28;20077;-81
2022/09/23 04:50:12;;;;;;;18.33;4.65;;;;;;;4.60;100.00;98800.38;2621810;28;20554;-81
2022/09/23 04:51:30;;;;;;;5.75;3.78;;;;;;;4.57;100.00;98801.22;2620889;28;20058;-80
2022/09/23 04:52:46;;;;;;;5.35;3.53;;;;;;;4.45;100.00;98803.78;2620452;28;20052;-80
2022/09/23 04:54:01;;;;;;;7.85;3.83;;;;;;;4.58;100.00;98804.72;2622354;28;20127;-80
2022/09/23 04:55:21;;;;;;;5.85;3.90;;;;;;;4.63;100.00;98801.25;2619289;28;20226;-80
2022/09/23 04:56:36;;;;;;;9.63;4.18;;;;;;;4.48;100.00;98798.63;2622351;28;20044;-82
2022/09/23 04:57:52;;;;;;;13.57;4.40;;;;;;;4.53;100.00;98802.09;2619771;28;20059;-80
2022/09/23 04:59:08;;;;;;;48.33;5.38;;;;;;;4.52;100.00;98800.38;2620087;28;20494;-81
2022/09/23 05:00:25;;;;;;;24.38;4.97;;;;;;;4.46;100.00;98798.63;2620813;28;20051;-81
2022/09/23 05:01:41;;;;;;;7.43;3.70;;;;;;;4.13;100.00;98804.56;2621150;28;20830;-82
2022/09/23 05:02:57;;;;;;;11.82;3.72;;;;;;;4.06;100.00;98812.31;2620342;28;20075;-88
2022/09/23 05:04:13;;;;;;;8.70;3.80;;;;;;;4.20;100.00;98803.75;2620282;28;20406;-81
2022/09/23 05:05:44;;;;;;;12.32;4.25;;;;;;;4.15;100.00;98808.03;2620177;28;20045;-81
2022/09/23 05:07:17;;;;;;;6.13;3.78;;;;;;;4.16;100.00;98808.03;2618560;28;20051;-80
2022/09/23 05:08:34;;;;;;;7.25;4.32;;;;;;;4.19;100.00;98796.78;2619256;28;20051;-82
2022/09/23 05:09:50;;;;;;;12.18;4.50;;;;;;;4.23;100.00;98801.16;2619780;28;20045;-79
2022/09/23 05:11:06;;;;;;;23.23;4.45;;;;;;;4.27;100.00;98804.63;2619681;28;20059;-80
2022/09/23 05:12:21;;;;;;;8.85;4.15;;;;;;;4.27;100.00;98799.44;2619933;28;20048;-79
2022/09/23 05:13:37;;;;;;;17.65;4.35;;;;;;;4.35;100.00;98798.59;2619074;28;20644;-79
2022/09/23 05:14:53;;;;;;;16.42;4.78;;;;;;;4.28;100.00;98804.63;2620719;28;20492;-81
2022/09/23 05:16:11;;;;;;;7.15;4.50;;;;;;;4.12;100.00;98815.78;2619511;28;20047;-79
2022/09/23 05:17:28;;;;;;;42.72;5.15;;;;;;;4.34;100.00;98817.63;2621369;28;20137;-86
2022/09/23 05:18:44;;;;;;;7.25;4.47;;;;;;;4.24;100.00;98813.25;2619711;28;20588;-79
2022/09/23 05:20:00;;;;;;;7.53;4.15;;;;;;;4.35;100.00;98806.38;2619851;28;20552;-80
2022/09/23 05:21:20;;;;;;;13.80;5.00;;;;;;;4.52;100.00;98808.16;2620816;28;20055;-80
2022/09/23 05:22:35;;;;;;;20.98;5.13;;;;;;;4.43;100.00;98814.19;2618995;28;20648;-79
2022/09/23 05:23:53;;;;;;;23.77;4.78;;;;;;;4.27;100.00;98820.19;2620811;28;20140;-83
2022/09/23 05:27:11;;;;;;;7.25;3.97;;;;;;;4.22;100.00;98821.00;2621825;28;20109;-80
2022/09/23 05:28:31;;;;;;;7.13;4.13;;;;;;;4.19;100.00;98817.53;2622724;28;20071;-80
2022/09/23 05:29:47;;;;;;;5.63;3.65;;;;;;;4.38;100.00;98818.47;2621330;28;20101;-81
2022/09/23 05:31:11;;;;;;;8.43;4.20;;;;;;;4.36;100.00;98815.88;2620776;28;20422;-79
2022/09/23 05:32:26;;;;;;;6.72;4.15;;;;;;;4.34;100.00;98819.31;2622041;28;20067;-79
2022/09/23 05:33:47;;;;;;;7.90;4.18;;;;;;;4.36;100.00;98813.28;2623392;28;20070;-79
2022/09/23 05:35:03;;;;;;;12.43;4.18;;;;;;;4.17;100.00;98821.84;2621363;28;20134;-80
2022/09/23 05:36:20;;;;;;;6.65;4.32;;;;;;;4.28;100.00;98827.94;2623192;28;20670;-81
2022/09/23 05:37:37;;;;;;;24.30;5.47;;;;;;;4.46;100.00;98815.91;2621830;28;20102;-80
2022/09/23 05:38:53;;;;;;;5.93;4.07;;;;;;;4.73;100.00;98824.59;2622117;28;20045;-84
2022/09/23 05:40:09;;;;;;;6.85;4.50;;;;;;;4.86;100.00;98809.94;2620999;28;20085;-85
2022/09/23 05:41:26;;;;;;;16.70;4.53;;;;;;;4.77;100.00;98815.97;2618475;28;20434;-85
2022/09/23 05:42:41;;;;;;;7.10;4.43;;;;;;;4.60;100.00;98811.59;2622470;28;20491;-80
2022/09/23 05:43:58;;;;;;;7.60;4.20;;;;;;;4.81;100.00;98810.78;2624032;28;20167;-81
2022/09/23 05:45:14;;;;;;;5.68;4.00;;;;;;;4.60;100.00;98815.94;2621460;28;20052;-81
2022/09/23 05:46:30;;;;;;;8.98;4.25;;;;;;;4.43;100.00;98815.88;2623343;28;20048;-81
2022/09/23 05:47:45;;;;;;;30.40;4.57;;;;;;;4.51;100.00;98814.19;2623350;28;20074;-81
2022/09/23 05:49:01;;;;;;;7.38;4.28;;;;;;;4.74;100.00;98810.75;2621965;28;20127;-82
2022/09/23 05:50:17;;;;;;;7.50;3.85;;;;;;;4.52;100.00;98811.59;2622284;28;20130;-81
2022/09/23 05:51:34;;;;;;;6.47;3.90;;;;;;;4.59;100.00;98811.63;2623308;28;20453;-81
2022/09/23 05:52:51;;;;;;;4.65;3.55;;;;;;;4.43;100.00;98808.13;2622275;28;20074;-82
2022/09/23 05:54:07;;;;;;;6.32;3.83;;;;;;;4.52;100.00;98814.19;2622706;28;20040;-86
2022/09/23 05:55:22;;;;;;;5.57;3.80;;;;;;;4.81;100.00;98817.72;2621043;28;20062;-82
2022/09/23 05:56:38;;;;;;;5.50;3.63;;;;;;;4.92;100.00;98810.81;2621172;28;20497;-83
2022/09/23 05:57:54;;;;;;;7.15;4.03;;;;;;;4.87;100.00;98814.25;2622594;28;20417;-82
2022/09/23 05:59:09;;;;;;;6.28;3.78;;;;;;;4.97;100.00;98808.22;2623131;28;20056;-82
2022/09/23 06:00:25;;;;;;;5.80;3.88;;;;;;;4.85;100.00;98803.88;2622936;28;20057;-82
2022/09/23 06:01:42;;;;;;;6.47;4.15;;;;;;;5.02;100.00;98808.19;2622525;28;20048;-82
2022/09/23 06:02:58;;;;;;;19.33;5.45;;;;;;;5.09;100.00;98813.38;2621610;28;20048;-83
2022/09/23 06:04:14;;;;;;;10.43;4.22;;;;;;;5.03;100.00;98813.41;2621415;28;20044;-81
2022/09/23 06:05:29;;;;;;;11.35;3.90;;;;;;;5.15;100.00;98809.94;2621328;28;20068;-82
2022/09/23 06:06:45;;;;;;;6.55;3.80;;;;;;;5.25;100.00;98813.41;2623977;28;20052;-82
2022/09/23 06:08:01;;;;;;;5.22;3.60;;;;;;;5.25;100.00;98812.53;2623163;28;20052;-82
2022/09/23 06:09:16;;;;;;;33.92;4.55;;;;;;;5.17;100.00;98810.81;2624076;28;20055;-84
2022/09/23 06:10:45;;;;;;;6.95;4.10;;;;;;;5.24;100.00;98811.69;2622800;28;20044;-82
2022/09/23 06:12:01;;;;;;;21.15;4.32;;;;;;;5.26;100.00;98817.75;2622445;28;20056;-84
2022/09/23 06:13:16;;;;;;;6.85;3.85;;;;;;;5.32;100.00;98815.13;2624449;28;20067;-82
2022/09/23 06:14:32;;;;;;;15.20;3.95;;;;;;;5.36;100.00;98818.59;2623289;28;20052;-83
2022/09/23 06:15:47;;;;;;;21.73;4.05;;;;;;;5.27;100.00;98824.66;2622940;28;20044;-82
2022/09/23 06:17:04;;;;;;;8.93;3.88;;;;;;;5.34;100.00;98822.94;2621723;28;20247;-82
2022/09/23 06:18:19;;;;;;;37.53;5.70;;;;;;;5.49;100.00;98822.91;2620808;28;20060;-82
2022/09/23 06:19:35;;;;;;;10.10;3.95;;;;;;;5.25;100.00;98821.22;2621850;28;20525;-82
2022/09/23 06:20:50;;;;;;;6.45;4.15;;;;;;;4.85;100.00;98819.44;2620870;28;20430;-82